createdAt,value
2018-04-12T00:00:25.850Z,0
2018-04-12T00:01:35.929Z,0
2018-04-12T00:02:45.479Z,0
2018-04-12T00:03:55.302Z,0
2018-04-12T00:05:05.392Z,0
2018-04-12T00:06:14.959Z,0
2018-04-12T00:07:25.035Z,0
2018-04-12T00:08:34.843Z,0
2018-04-12T00:09:44.923Z,0
2018-04-12T00:10:54.510Z,0
2018-04-12T00:12:04.328Z,0
2018-04-12T00:13:14.459Z,0
2018-04-12T00:14:24.014Z,0
2018-04-12T00:15:34.102Z,0
2018-04-12T00:16:43.924Z,0
2018-04-12T00:17:54.013Z,0
2018-04-12T00:19:03.828Z,0
2018-04-12T00:20:13.906Z,0
2018-04-12T00:21:23.980Z,0
2018-04-12T00:22:34.040Z,0
2018-04-12T00:23:43.318Z,0
2018-04-12T00:24:53.400Z,0
2018-04-12T00:26:03.480Z,0
2018-04-12T00:27:13.546Z,0
2018-04-12T00:28:23.638Z,0
2018-04-12T00:29:33.724Z,0
2018-04-12T00:30:43.857Z,0
2018-04-12T00:31:53.953Z,0
2018-04-12T00:33:04.039Z,0
2018-04-12T00:34:14.140Z,0
2018-04-12T00:35:24.217Z,0
2018-04-12T00:36:34.346Z,0
2018-04-12T00:37:44.159Z,0
2018-04-12T00:38:54.530Z,0
2018-04-12T00:40:04.612Z,0
2018-04-12T00:41:14.699Z,0
2018-04-12T00:42:24.496Z,0
2018-04-12T00:43:34.582Z,0
2018-04-12T00:44:44.668Z,0
2018-04-12T00:45:54.725Z,0
2018-04-12T00:47:04.791Z,0
2018-04-12T00:48:14.865Z,0
2018-04-12T00:49:24.995Z,0
2018-04-12T00:50:34.596Z,0
2018-04-12T00:51:44.678Z,0
2018-04-12T00:52:54.762Z,0
2018-04-12T00:54:04.573Z,0
2018-04-12T00:55:14.666Z,0
2018-04-12T00:56:24.504Z,0
2018-04-12T00:57:34.608Z,0
2018-04-12T00:58:44.419Z,0
2018-04-12T00:59:54.499Z,0
2018-04-12T01:01:04.332Z,0
2018-04-12T01:02:14.421Z,0
2018-04-12T01:03:24.500Z,0
2018-04-12T01:04:34.572Z,0
2018-04-12T01:05:44.680Z,0
2018-04-12T01:06:54.770Z,0
2018-04-12T01:08:04.863Z,0
2018-04-12T01:09:14.955Z,0
2018-04-12T01:10:25.020Z,0
2018-04-12T01:11:35.106Z,0
2018-04-12T01:12:45.224Z,0
2018-04-12T01:13:55.292Z,0
2018-04-12T01:15:05.380Z,0
2018-04-12T01:16:15.465Z,0
2018-04-12T01:17:25.287Z,0
2018-04-12T01:18:35.105Z,0
2018-04-12T01:19:45.197Z,0
2018-04-12T01:20:55.260Z,0
2018-04-12T01:22:05.081Z,0
2018-04-12T01:23:15.226Z,0
2018-04-12T01:24:25.048Z,0
2018-04-12T01:25:35.139Z,0
2018-04-12T01:26:45.202Z,0
2018-04-12T01:27:55.295Z,0
2018-04-12T01:29:05.374Z,0
2018-04-12T01:30:15.459Z,0
2018-04-12T01:31:25.535Z,0
2018-04-12T01:32:35.356Z,0
2018-04-12T01:33:45.440Z,0
2018-04-12T01:34:55.513Z,0
2018-04-12T01:36:05.593Z,0
2018-04-12T01:37:15.418Z,0
2018-04-12T01:38:25.504Z,0
2018-04-12T01:39:35.335Z,0
2018-04-12T01:40:45.162Z,0
2018-04-12T01:41:54.961Z,0
2018-04-12T01:43:05.042Z,0
2018-04-12T01:44:15.127Z,0
2018-04-12T01:45:25.224Z,0
2018-04-12T01:46:35.318Z,0
2018-04-12T01:47:45.405Z,0
2018-04-12T01:48:55.483Z,0
2018-04-12T01:50:05.543Z,0
2018-04-12T01:51:15.613Z,0
2018-04-12T01:52:25.685Z,0
2018-04-12T01:53:35.756Z,0
2018-04-12T01:54:45.834Z,0
2018-04-12T01:55:55.671Z,0
2018-04-12T01:57:05.744Z,0
2018-04-12T01:58:15.614Z,0
2018-04-12T01:59:25.701Z,0
2018-04-12T02:00:35.784Z,0
2018-04-12T02:01:45.858Z,0
2018-04-12T02:02:55.960Z,0
2018-04-12T02:04:06.036Z,0
2018-04-12T02:05:15.590Z,0
2018-04-12T02:06:25.677Z,0
2018-04-12T02:07:35.484Z,0
2018-04-12T02:08:45.300Z,0
2018-04-12T02:09:55.127Z,0
2018-04-12T02:11:05.221Z,0
2018-04-12T02:12:15.031Z,0
2018-04-12T02:13:25.101Z,0
2018-04-12T02:14:34.906Z,0
2018-04-12T02:15:44.984Z,0
2018-04-12T02:16:55.043Z,0
2018-04-12T02:18:04.591Z,0
2018-04-12T02:19:14.667Z,0
2018-04-12T02:20:24.762Z,0
2018-04-12T02:21:34.843Z,0
2018-04-12T02:22:44.952Z,0
2018-04-12T02:23:55.119Z,0
2018-04-12T02:25:05.201Z,0
2018-04-12T02:26:15.279Z,0
2018-04-12T02:27:25.365Z,0
2018-04-12T02:28:35.456Z,0
2018-04-12T02:29:45.548Z,0
2018-04-12T02:30:55.633Z,0
2018-04-12T02:32:05.444Z,0
2018-04-12T02:33:15.320Z,0
2018-04-12T02:34:25.415Z,0
2018-04-12T02:35:35.507Z,0
2018-04-12T02:36:45.597Z,0
2018-04-12T02:37:55.669Z,0
2018-04-12T02:39:05.744Z,0
2018-04-12T02:40:15.816Z,0
2018-04-12T02:41:25.640Z,0
2018-04-12T02:42:35.733Z,0
2018-04-12T02:43:45.830Z,0
2018-04-12T02:44:55.930Z,0
2018-04-12T02:46:06.004Z,0
2018-04-12T02:47:16.081Z,0
2018-04-12T02:48:26.166Z,0
2018-04-12T02:49:36.278Z,0
2018-04-12T02:50:46.650Z,0
2018-04-12T02:51:56.219Z,0
2018-04-12T02:53:06.043Z,0
2018-04-12T02:54:16.127Z,0
2018-04-12T02:55:26.260Z,0
2018-04-12T02:56:36.333Z,0
2018-04-12T02:57:46.167Z,0
2018-04-12T02:58:55.998Z,0
2018-04-12T03:00:06.085Z,0
2018-04-12T03:01:16.166Z,0
2018-04-12T03:02:26.243Z,0
2018-04-12T03:34:00.269Z,0
2018-04-12T03:35:10.323Z,0
2018-04-12T03:36:20.123Z,0
2018-04-12T03:37:29.925Z,0
2018-04-12T03:38:39.998Z,0
2018-04-12T03:39:50.085Z,0
2018-04-12T03:41:00.150Z,0
2018-04-12T03:42:10.031Z,0
2018-04-12T03:43:20.129Z,4
2018-04-12T03:44:30.219Z,4
2018-04-12T03:45:40.307Z,0
2018-04-12T03:46:50.388Z,4
2018-04-12T03:48:00.434Z,4
2018-04-12T03:49:10.930Z,4
2018-04-12T03:50:21.094Z,4
2018-04-12T03:51:31.333Z,4
2018-04-12T03:52:41.150Z,8
2018-04-12T03:53:51.234Z,8
2018-04-12T03:55:01.304Z,12
2018-04-12T03:56:11.135Z,12
2018-04-12T03:57:21.004Z,12
2018-04-12T03:58:30.843Z,20
2018-04-12T03:59:40.659Z,20
2018-04-12T04:00:50.475Z,24
2018-04-12T04:02:00.568Z,24
2018-04-12T04:03:10.389Z,32
2018-04-12T04:04:20.449Z,40
2018-04-12T04:05:30.015Z,44
2018-04-12T04:06:40.080Z,48
2018-04-12T04:07:50.162Z,56
2018-04-12T04:09:00.295Z,68
2018-04-12T04:10:10.377Z,76
2018-04-12T04:11:20.451Z,84
2018-04-12T04:12:30.543Z,100
2018-04-12T04:13:40.596Z,116
2018-04-12T04:14:50.463Z,136
2018-04-12T04:16:00.268Z,152
2018-04-12T04:17:10.345Z,176
2018-04-12T04:18:20.157Z,196
2018-04-12T04:19:30.252Z,224
2018-04-12T04:20:40.063Z,252
2018-04-12T04:21:50.161Z,280
2018-04-12T04:23:00.244Z,308
2018-04-12T04:24:10.325Z,340
2018-04-12T04:25:20.398Z,376
2018-04-12T04:26:30.478Z,416
2018-04-12T04:27:40.550Z,460
2018-04-12T04:28:50.104Z,516
2018-04-12T04:29:59.919Z,576
2018-04-12T04:31:10.037Z,592
2018-04-12T04:32:19.904Z,624
2018-04-12T04:33:29.978Z,664
2018-04-12T04:34:40.052Z,708
2018-04-12T04:35:50.138Z,756
2018-04-12T04:37:00.212Z,800
2018-04-12T04:38:09.758Z,868
2018-04-12T04:39:19.588Z,940
2018-04-12T04:40:29.669Z,1008
2018-04-12T04:41:39.754Z,996
2018-04-12T04:42:49.864Z,1128
2018-04-12T04:43:59.731Z,1288
2018-04-12T04:45:09.818Z,1328
2018-04-12T04:46:19.891Z,1264
2018-04-12T04:47:29.973Z,1224
2018-04-12T04:48:40.054Z,1204
2018-04-12T04:49:50.130Z,1272
2018-04-12T04:51:00.207Z,1480
2018-04-12T04:52:10.291Z,1728
2018-04-12T04:53:20.384Z,1920
2018-04-12T04:54:30.504Z,2176
2018-04-12T04:55:40.604Z,2064
2018-04-12T04:56:50.705Z,1652
2018-04-12T04:58:00.556Z,1648
2018-04-12T04:59:10.650Z,1720
2018-04-12T05:00:20.740Z,1948
2018-04-12T05:01:31.016Z,2288
2018-04-12T05:02:41.099Z,2364
2018-04-12T05:03:50.911Z,2432
2018-04-12T05:05:01.019Z,2448
2018-04-12T05:06:11.115Z,2412
2018-04-12T05:07:21.266Z,2392
2018-04-12T05:08:31.363Z,2476
2018-04-12T05:09:41.451Z,2848
2018-04-12T05:10:51.539Z,2856
2018-04-12T05:12:01.627Z,2840
2018-04-12T05:13:11.690Z,2840
2018-04-12T05:14:21.777Z,2492
2018-04-12T05:15:31.807Z,2556
2018-04-12T05:16:41.716Z,2668
2018-04-12T05:17:51.286Z,2764
2018-04-12T05:19:01.361Z,3272
2018-04-12T05:20:11.437Z,3584
2018-04-12T05:21:21.527Z,3812
2018-04-12T05:22:31.351Z,4232
2018-04-12T05:23:41.167Z,4240
2018-04-12T05:24:51.322Z,4320
2018-04-12T05:26:00.879Z,4764
2018-04-12T05:27:10.711Z,3980
2018-04-12T05:28:20.814Z,3736
2018-04-12T05:29:30.899Z,3904
2018-04-12T05:30:40.985Z,4096
2018-04-12T05:31:50.812Z,3936
2018-04-12T05:33:00.901Z,3832
2018-04-12T05:34:10.751Z,3808
2018-04-12T05:35:20.575Z,3804
2018-04-12T05:36:30.409Z,3948
2018-04-12T05:37:40.499Z,4512
2018-04-12T05:38:50.577Z,4988
2018-04-12T05:40:00.635Z,5068
2018-04-12T05:41:10.486Z,5056
2018-04-12T05:42:20.568Z,5184
2018-04-12T05:43:30.638Z,4580
2018-04-12T05:44:40.723Z,4376
2018-04-12T05:45:50.826Z,4364
2018-04-12T05:47:00.366Z,4296
2018-04-12T05:48:10.511Z,4368
2018-04-12T05:49:20.590Z,4836
2018-04-12T05:50:30.437Z,4652
2018-04-12T05:51:40.517Z,4352
2018-04-12T05:52:50.655Z,4316
2018-04-12T05:54:00.756Z,4632
2018-04-12T05:55:10.811Z,4856
2018-04-12T05:56:20.883Z,4900
2018-04-12T05:57:30.707Z,4740
2018-04-12T05:58:40.787Z,4408
2018-04-12T05:59:50.881Z,4268
2018-04-12T06:01:00.711Z,4296
2018-04-12T06:02:10.804Z,4396
2018-04-12T06:03:20.631Z,4664
2018-04-12T06:04:30.723Z,4788
2018-04-12T06:05:40.803Z,4576
2018-04-12T06:06:50.904Z,4476
2018-04-12T06:08:00.457Z,4432
2018-04-12T06:09:10.281Z,4436
2018-04-12T06:10:20.366Z,4468
2018-04-12T06:11:30.185Z,4520
2018-04-12T06:12:40.101Z,4512
2018-04-12T06:13:50.240Z,4484
2018-04-12T06:15:00.334Z,4472
2018-04-12T06:16:10.428Z,4560
2018-04-12T06:17:20.289Z,4712
2018-04-12T06:18:30.388Z,4704
2018-04-12T06:19:40.236Z,4756
2018-04-12T06:20:50.043Z,4768
2018-04-12T06:22:00.139Z,4860
2018-04-12T06:23:09.957Z,5028
2018-04-12T06:24:19.768Z,5188
2018-04-12T06:25:29.590Z,5228
2018-04-12T06:26:39.723Z,5340
2018-04-12T06:27:49.550Z,5400
2018-04-12T06:28:59.639Z,5468
2018-04-12T06:30:09.454Z,5508
2018-04-12T06:31:19.548Z,5528
2018-04-12T06:32:29.093Z,5440
2018-04-12T06:33:39.227Z,5396
2018-04-12T06:34:49.309Z,5356
2018-04-12T06:35:59.401Z,5360
2018-04-12T06:37:09.461Z,5424
2018-04-12T06:38:19.290Z,5408
2018-04-12T06:39:29.375Z,5404
2018-04-12T06:40:39.468Z,5352
2018-04-12T06:41:49.614Z,5396
2018-04-12T06:42:58.906Z,5512
2018-04-12T06:44:08.993Z,5584
2018-04-12T06:45:19.085Z,5688
2018-04-12T06:46:28.893Z,5852
2018-04-12T06:47:38.963Z,6044
2018-04-12T06:48:49.088Z,6128
2018-04-12T06:49:59.174Z,6228
2018-04-12T06:51:09.263Z,6328
2018-04-12T06:52:19.388Z,6476
2018-04-12T06:53:29.508Z,6528
2018-04-12T06:54:39.575Z,6652
2018-04-12T06:55:49.667Z,6748
2018-04-12T06:56:59.753Z,6748
2018-04-12T06:58:09.842Z,6884
2018-04-12T06:59:19.934Z,6956
2018-04-12T07:00:30.011Z,6960
2018-04-12T07:01:40.072Z,7016
2018-04-12T07:02:50.162Z,7044
2018-04-12T07:04:00.245Z,7032
2018-04-12T07:05:10.329Z,7036
2018-04-12T07:06:20.197Z,6960
2018-04-12T07:07:30.005Z,6900
2018-04-12T07:08:40.093Z,6788
2018-04-12T07:09:49.932Z,6764
2018-04-12T07:11:00.066Z,6524
2018-04-12T07:12:10.146Z,6396
2018-04-12T07:13:19.967Z,6544
2018-04-12T07:14:30.072Z,6644
2018-04-12T07:15:40.149Z,6804
2018-04-12T07:16:49.980Z,6780
2018-04-12T07:18:00.090Z,6744
2018-04-12T07:19:09.914Z,6608
2018-04-12T07:20:19.793Z,6520
2018-04-12T07:21:29.868Z,6524
2018-04-12T07:22:39.751Z,6536
2018-04-12T07:23:49.859Z,6584
2018-04-12T07:24:59.665Z,6560
2018-04-12T07:26:09.886Z,6580
2018-04-12T07:27:19.971Z,6576
2018-04-12T07:28:30.103Z,6568
2018-04-12T07:29:40.175Z,6640
2018-04-12T07:30:49.749Z,6612
2018-04-12T07:31:59.575Z,6616
2018-04-12T07:33:09.651Z,6556
2018-04-12T07:34:19.492Z,6684
2018-04-12T07:35:29.603Z,6768
2018-04-12T07:36:39.708Z,6736
2018-04-12T07:37:49.796Z,6800
2018-04-12T07:38:59.892Z,6828
2018-04-12T07:40:10.080Z,6728
2018-04-12T07:41:20.159Z,6788
2018-04-12T07:42:29.983Z,6792
2018-04-12T07:43:40.207Z,6776
2018-04-12T07:44:50.411Z,6732
2018-04-12T07:46:00.550Z,6792
2018-04-12T07:47:10.627Z,6848
2018-04-12T07:48:21.718Z,6896
2018-04-12T07:49:33.749Z,6960
2018-04-12T07:50:44.523Z,7048
2018-04-12T07:51:54.680Z,7012
2018-04-12T07:53:04.768Z,7020
2018-04-12T07:54:14.836Z,7072
2018-04-12T07:55:24.924Z,6980
2018-04-12T07:56:35.089Z,6988
2018-04-12T07:57:45.187Z,7084
2018-04-12T07:58:55.017Z,7064
2018-04-12T08:00:05.108Z,7088
2018-04-12T08:01:15.176Z,7112
2018-04-12T08:02:25.270Z,7004
2018-04-12T08:03:35.371Z,6920
2018-04-12T08:04:45.461Z,6896
2018-04-12T08:05:55.538Z,6844
2018-04-12T08:07:04.856Z,6868
2018-04-12T08:08:14.949Z,6856
2018-04-12T08:09:25.028Z,6916
2018-04-12T08:10:35.121Z,6796
2018-04-12T08:11:45.227Z,6792
2018-04-12T08:12:55.357Z,6856
2018-04-12T08:14:05.430Z,6720
2018-04-12T08:15:15.297Z,6684
2018-04-12T08:16:25.257Z,6732
2018-04-12T08:17:35.360Z,6580
2018-04-12T08:18:45.457Z,6332
2018-04-12T08:19:55.544Z,6388
2018-04-12T08:21:05.693Z,6572
2018-04-12T08:22:15.789Z,6600
2018-04-12T08:23:25.607Z,6552
2018-04-12T08:24:35.162Z,6548
2018-04-12T08:25:45.243Z,6556
2018-04-12T08:26:55.064Z,6548
2018-04-12T08:28:04.880Z,6548
2018-04-12T08:29:14.982Z,6584
2018-04-12T08:30:25.056Z,6644
2018-04-12T08:31:34.927Z,6540
2018-04-12T08:32:45.013Z,6340
2018-04-12T08:33:55.134Z,6280
2018-04-12T08:35:05.221Z,6304
2018-04-12T08:36:15.043Z,6312
2018-04-12T08:37:24.870Z,6312
2018-04-12T08:38:34.951Z,6348
2018-04-12T08:39:45.033Z,6312
2018-04-12T08:40:55.132Z,6428
2018-04-12T08:42:05.219Z,6464
2018-04-12T08:43:15.301Z,6424
2018-04-12T08:44:25.388Z,6380
2018-04-12T08:45:35.215Z,6372
2018-04-12T08:46:45.037Z,6384
2018-04-12T08:47:55.129Z,6400
2018-04-12T08:49:05.215Z,6416
2018-04-12T08:50:15.296Z,6384
2018-04-12T08:51:24.853Z,6392
2018-04-12T08:52:34.936Z,6388
2018-04-12T08:53:44.760Z,6392
2018-04-12T08:54:54.597Z,6412
2018-04-12T08:56:04.687Z,6440
2018-04-12T08:57:14.857Z,6436
2018-04-12T08:58:24.950Z,6424
2018-04-12T08:59:35.046Z,6424
2018-04-12T09:00:45.141Z,6428
2018-04-12T09:01:55.271Z,6452
2018-04-12T09:03:05.369Z,6440
2018-04-12T09:04:15.464Z,6456
2018-04-12T09:05:25.583Z,6484
2018-04-12T09:06:35.771Z,6448
2018-04-12T09:07:45.897Z,6476
2018-04-12T09:08:56.745Z,6424
2018-04-12T09:10:08.563Z,6284
2018-04-12T09:11:19.788Z,6384
2018-04-12T09:12:30.138Z,6456
2018-04-12T09:13:41.253Z,6528
2018-04-12T09:14:52.854Z,6468
2018-04-12T09:16:03.686Z,6576
2018-04-12T09:17:15.585Z,6656
2018-04-12T09:18:26.814Z,6628
2018-04-12T09:19:37.334Z,6620
2018-04-12T09:20:47.442Z,6612
2018-04-12T09:21:57.549Z,6644
2018-04-12T09:23:07.651Z,6656
2018-04-12T09:24:17.825Z,6676
2018-04-12T09:25:27.664Z,6688
2018-04-12T09:26:37.797Z,6684
2018-04-12T09:27:48.034Z,6636
2018-04-12T09:28:57.873Z,6796
2018-04-12T09:30:08.030Z,6776
2018-04-12T09:31:18.148Z,6724
2018-04-12T09:32:28.006Z,6776
2018-04-12T09:33:38.124Z,6812
2018-04-12T09:34:48.013Z,6788
2018-04-12T09:35:58.481Z,6844
2018-04-12T09:37:08.325Z,6816
2018-04-12T09:38:18.200Z,6848
2018-04-12T09:39:28.316Z,6864
2018-04-12T09:40:38.650Z,6896
2018-04-12T09:41:48.467Z,6928
2018-04-12T09:42:58.594Z,6932
2018-04-12T09:44:08.477Z,7012
2018-04-12T09:45:18.577Z,7020
2018-04-12T09:46:28.867Z,7036
2018-04-12T09:47:38.695Z,7000
2018-04-12T09:48:48.245Z,6988
2018-04-12T09:49:58.356Z,6908
2018-04-12T09:51:08.203Z,6828
2018-04-12T09:52:18.291Z,6908
2018-04-12T09:53:28.195Z,6864
2018-04-12T09:54:38.027Z,6968
2018-04-12T09:55:48.123Z,7024
2018-04-12T09:56:58.269Z,7116
2018-04-12T09:58:08.119Z,7072
2018-04-12T09:59:18.203Z,7108
2018-04-12T10:00:28.074Z,7004
2018-04-12T10:01:38.766Z,6908
2018-04-12T10:02:48.959Z,6960
2018-04-12T10:03:59.049Z,6984
2018-04-12T10:05:09.159Z,7040
2018-04-12T10:06:19.342Z,7048
2018-04-12T10:07:29.449Z,7152
2018-04-12T10:08:39.028Z,7152
2018-04-12T10:09:48.856Z,7176
2018-04-12T10:10:58.920Z,7164
2018-04-12T10:12:08.741Z,7192
2018-04-12T10:13:18.848Z,7172
2018-04-12T10:14:28.945Z,7200
2018-04-12T10:15:39.052Z,7144
2018-04-12T10:16:49.274Z,7148
2018-04-12T10:17:59.364Z,7224
2018-04-12T10:19:09.455Z,7232
2018-04-12T10:20:19.550Z,7256
2018-04-12T10:21:29.643Z,7252
2018-04-12T10:22:39.482Z,7244
2018-04-12T10:23:49.592Z,7244
2018-04-12T10:24:59.694Z,7260
2018-04-12T10:26:09.821Z,7296
2018-04-12T10:27:20.165Z,7332
2018-04-12T10:28:30.007Z,7320
2018-04-12T10:29:40.114Z,7376
2018-04-12T10:30:49.937Z,7352
2018-04-12T10:32:00.015Z,7404
2018-04-12T10:33:10.499Z,7428
2018-04-12T10:34:20.769Z,7396
2018-04-12T10:35:30.879Z,7432
2018-04-12T10:36:40.714Z,7416
2018-04-12T10:37:50.577Z,7428
2018-04-12T10:39:00.934Z,7408
2018-04-12T10:40:10.835Z,7464
2018-04-12T10:41:20.924Z,7432
2018-04-12T10:42:31.056Z,7452
2018-04-12T10:43:41.142Z,7428
2018-04-12T10:44:51.280Z,7352
2018-04-12T10:46:01.444Z,7308
2018-04-12T10:47:11.573Z,7316
2018-04-12T10:48:21.655Z,7308
2018-04-12T10:49:31.744Z,7412
2018-04-12T10:50:41.848Z,7564
2018-04-12T10:51:52.001Z,7596
2018-04-12T10:53:01.865Z,7680
2018-04-12T10:54:11.982Z,7764
2018-04-12T10:55:22.073Z,7796
2018-04-12T10:56:32.176Z,7884
2018-04-12T10:57:42.071Z,8004
2018-04-12T10:58:52.180Z,8180
2018-04-12T11:00:01.751Z,8356
2018-04-12T11:01:11.886Z,8552
2018-04-12T11:02:22.022Z,8824
2018-04-12T11:03:32.359Z,9060
2018-04-12T11:04:42.455Z,9284
2018-04-12T11:05:52.296Z,9420
2018-04-12T11:07:02.152Z,9544
2018-04-12T11:08:12.282Z,9668
2018-04-12T11:09:22.379Z,9648
2018-04-12T11:10:32.494Z,9704
2018-04-12T11:11:42.324Z,9628
2018-04-12T11:12:52.460Z,9700
2018-04-12T11:14:02.298Z,9700
2018-04-12T11:15:12.147Z,9720
2018-04-12T11:16:22.238Z,9648
2018-04-12T11:17:32.074Z,9676
2018-04-12T11:18:42.173Z,9656
2018-04-12T11:19:52.008Z,9628
2018-04-12T11:21:02.245Z,9544
2018-04-12T11:22:12.439Z,9344
2018-04-12T11:23:22.688Z,9248
2018-04-12T11:24:32.925Z,9104
2018-04-12T11:25:43.047Z,8960
2018-04-12T11:26:53.236Z,8912
2018-04-12T11:28:03.330Z,8848
2018-04-12T11:29:13.438Z,8840
2018-04-12T11:30:23.585Z,8812
2018-04-12T11:31:33.886Z,8816
2018-04-12T11:32:43.512Z,8788
2018-04-12T11:33:53.649Z,8772
2018-04-12T11:35:03.946Z,8884
2018-04-12T11:36:13.824Z,8992
2018-04-12T11:37:23.948Z,9056
2018-04-12T11:38:33.773Z,9064
2018-04-12T11:39:43.876Z,9100
2018-04-12T11:40:54.206Z,9100
2018-04-12T11:42:04.287Z,9108
2018-04-12T11:43:14.395Z,9000
2018-04-12T11:44:24.505Z,8924
2018-04-12T11:45:34.705Z,8852
2018-04-12T11:46:44.918Z,8820
2018-04-12T11:47:54.825Z,8720
2018-04-12T11:49:05.121Z,8624
2018-04-12T11:50:15.283Z,8484
2018-04-12T11:51:25.387Z,8444
2018-04-12T11:52:35.535Z,8408
2018-04-12T11:53:45.673Z,8320
2018-04-12T11:54:55.791Z,8252
2018-04-12T11:56:06.018Z,8136
2018-04-12T11:57:16.222Z,7992
2018-04-12T11:58:26.308Z,7916
2018-04-12T11:59:36.424Z,7904
2018-04-12T12:00:47.049Z,7836
2018-04-12T12:01:57.513Z,7828
2018-04-12T12:03:08.815Z,7780
2018-04-12T12:04:20.184Z,7792
2018-04-12T12:05:30.524Z,7808
2018-04-12T12:06:40.636Z,7832
2018-04-12T12:07:50.479Z,7824
2018-04-12T12:09:00.599Z,7812
2018-04-12T12:10:10.765Z,7808
2018-04-12T12:11:20.892Z,7816
2018-04-12T12:12:31.143Z,7812
2018-04-12T12:13:41.270Z,7828
2018-04-12T12:14:51.062Z,7852
2018-04-12T12:16:01.168Z,7872
2018-04-12T12:17:11.265Z,7864
2018-04-12T12:18:21.375Z,7848
2018-04-12T12:19:31.502Z,7852
2018-04-12T12:20:41.599Z,7832
2018-04-12T12:21:51.584Z,7832
2018-04-12T12:23:01.428Z,7840
2018-04-12T12:24:11.536Z,7824
2018-04-12T12:25:21.384Z,7776
2018-04-12T12:26:31.503Z,7848
2018-04-12T12:27:41.360Z,7812
2018-04-12T12:28:51.524Z,7764
2018-04-12T12:30:01.725Z,7792
2018-04-12T12:31:11.823Z,7784
2018-04-12T12:32:21.921Z,7764
2018-04-12T12:33:31.799Z,7764
2018-04-12T12:34:41.933Z,7752
2018-04-12T12:35:52.042Z,7748
2018-04-12T12:37:02.139Z,7712
2018-04-12T12:38:12.244Z,7708
2018-04-12T12:39:22.125Z,7720
2018-04-12T12:40:31.715Z,7744
2018-04-12T12:41:41.828Z,7712
2018-04-12T12:42:51.973Z,7688
2018-04-12T12:44:02.096Z,7728
2018-04-12T12:45:12.249Z,7696
2018-04-12T12:46:22.356Z,7708
2018-04-12T12:47:32.440Z,7696
2018-04-12T12:48:42.290Z,7684
2018-04-12T12:49:52.386Z,7668
2018-04-12T12:51:02.498Z,7600
2018-04-12T12:52:12.606Z,7676
2018-04-12T12:53:22.710Z,7680
2018-04-12T12:54:32.792Z,7700
2018-04-12T12:55:42.899Z,7752
2018-04-12T12:56:52.990Z,7792
2018-04-12T12:58:03.091Z,7832
2018-04-12T12:59:13.164Z,7896
2018-04-12T13:00:22.786Z,7892
2018-04-12T13:01:32.905Z,7648
2018-04-12T13:02:43.064Z,6132
2018-04-12T13:03:53.222Z,7452
2018-04-12T13:05:03.323Z,8004
2018-04-12T13:06:13.151Z,7624
2018-04-12T13:07:22.741Z,6884
2018-04-12T13:08:33.102Z,7756
2018-04-12T13:09:43.210Z,7688
2018-04-12T13:10:53.339Z,7772
2018-04-12T13:12:03.453Z,7740
2018-04-12T13:13:13.557Z,7736
2018-04-12T13:14:23.770Z,7452
2018-04-12T13:15:33.881Z,7728
2018-04-12T13:16:44.194Z,7784
2018-04-12T13:17:54.332Z,7772
2018-04-12T13:19:04.164Z,7744
2018-04-12T13:20:14.264Z,7596
2018-04-12T13:21:24.355Z,7500
2018-04-12T13:22:34.698Z,7232
2018-04-12T13:23:44.807Z,7160
2018-04-12T13:24:54.911Z,7240
2018-04-12T13:26:05.009Z,7204
2018-04-12T13:27:14.852Z,7192
2018-04-12T13:28:24.987Z,7132
2018-04-12T13:29:34.809Z,6816
2018-04-12T13:30:44.910Z,6868
2018-04-12T13:31:55.049Z,5792
2018-04-12T13:33:05.060Z,6120
2018-04-12T13:34:15.030Z,6048
2018-04-12T13:35:25.151Z,5780
2018-04-12T13:36:35.071Z,5756
2018-04-12T13:37:45.207Z,5276
2018-04-12T13:38:55.299Z,7316
2018-04-12T13:40:05.391Z,7208
2018-04-12T13:41:15.477Z,7260
2018-04-12T13:42:25.572Z,6904
2018-04-12T13:43:45.140Z,6032
2018-04-12T13:44:55.310Z,6560
2018-04-12T13:46:05.157Z,6804
2018-04-12T13:47:15.275Z,6932
2018-04-12T13:48:25.619Z,6840
2018-04-12T13:49:35.483Z,7064
2018-04-12T13:50:45.575Z,7304
2018-04-12T13:51:55.398Z,7324
2018-04-12T13:53:05.249Z,7292
2018-04-12T13:54:15.080Z,7240
2018-04-12T13:55:24.756Z,7124
2018-04-12T13:56:34.940Z,7016
2018-04-12T13:57:45.082Z,6848
2018-04-12T13:58:54.941Z,6616
2018-04-12T14:00:04.794Z,4624
2018-04-12T14:01:14.640Z,4440
2018-04-12T14:02:24.737Z,4364
2018-04-12T14:03:34.897Z,4528
2018-04-12T14:04:45.075Z,5100
2018-04-12T14:05:55.601Z,5436
2018-04-12T14:07:05.870Z,5704
2018-04-12T14:08:16.165Z,6204
2018-04-12T14:09:26.557Z,5848
2018-04-12T14:10:36.993Z,6104
2018-04-12T14:11:47.260Z,6544
2018-04-12T14:12:57.791Z,5748
2018-04-12T14:14:08.188Z,6052
2018-04-12T14:15:18.335Z,6020
2018-04-12T14:16:28.254Z,6848
2018-04-12T14:17:38.772Z,6404
2018-04-12T14:18:49.078Z,5180
2018-04-12T14:19:59.337Z,4400
2018-04-12T14:21:09.047Z,4860
2018-04-12T14:22:18.888Z,5748
2018-04-12T14:23:29.017Z,5444
2018-04-12T14:24:39.115Z,5560
2018-04-12T14:25:48.958Z,4596
2018-04-12T14:26:58.814Z,4740
2018-04-12T14:28:08.922Z,3460
2018-04-12T14:29:19.027Z,3664
2018-04-12T14:30:28.868Z,4212
2018-04-12T14:31:38.705Z,4212
2018-04-12T14:32:48.539Z,4056
2018-04-12T14:33:58.635Z,4292
2018-04-12T14:35:08.748Z,4992
2018-04-12T14:36:19.302Z,4988
2018-04-12T14:37:29.500Z,5260
2018-04-12T14:38:39.642Z,5596
2018-04-12T14:39:49.766Z,5256
2018-04-12T14:40:59.915Z,5464
2018-04-12T14:42:10.004Z,5504
2018-04-12T14:43:20.119Z,5292
2018-04-12T14:44:29.707Z,4964
2018-04-12T14:45:39.827Z,5012
2018-04-12T14:46:50.038Z,4488
2018-04-12T14:47:59.948Z,4896
2018-04-12T14:49:10.058Z,5180
2018-04-12T14:50:20.185Z,3836
2018-04-12T14:51:30.038Z,3208
2018-04-12T14:52:40.143Z,3644
2018-04-12T14:53:49.746Z,3556
2018-04-12T14:54:59.631Z,3024
2018-04-12T14:56:09.757Z,3044
2018-04-12T14:57:19.913Z,2928
2018-04-12T14:58:30.102Z,2956
2018-04-12T14:59:40.236Z,2756
2018-04-12T15:00:50.437Z,2704
2018-04-12T15:02:00.557Z,2684
2018-04-12T15:03:10.663Z,2732
2018-04-12T15:04:20.789Z,2812
2018-04-12T15:05:30.378Z,2920
2018-04-12T15:06:40.526Z,3240
2018-04-12T15:07:50.632Z,3800
2018-04-12T15:09:00.946Z,4572
2018-04-12T15:10:11.039Z,5144
2018-04-12T15:11:21.136Z,5388
2018-04-12T15:12:31.244Z,5612
2018-04-12T15:13:41.088Z,5164
2018-04-12T15:14:50.929Z,4796
2018-04-12T15:16:00.815Z,5040
2018-04-12T15:17:10.924Z,5212
2018-04-12T15:18:21.073Z,5364
2018-04-12T15:19:31.181Z,5552
2018-04-12T15:20:41.040Z,5524
2018-04-12T15:21:50.893Z,5532
2018-04-12T15:23:00.714Z,4872
2018-04-12T15:24:10.300Z,5320
2018-04-12T15:25:20.427Z,4916
2018-04-12T15:26:30.668Z,4228
2018-04-12T15:27:40.892Z,3812
2018-04-12T15:28:51.001Z,3672
2018-04-12T15:30:00.866Z,3824
2018-04-12T15:31:10.717Z,3772
2018-04-12T15:32:20.672Z,3648
2018-04-12T15:33:30.804Z,3952
2018-04-12T15:34:40.941Z,3560
2018-04-12T15:35:51.085Z,4076
2018-04-12T15:37:01.226Z,3956
2018-04-12T15:38:11.330Z,3460
2018-04-12T15:39:21.566Z,3184
2018-04-12T15:40:31.664Z,3808
2018-04-12T15:41:41.796Z,3788
2018-04-12T15:42:51.904Z,3704
2018-04-12T15:44:02.237Z,3324
2018-04-12T15:45:12.393Z,3204
2018-04-12T15:46:22.498Z,3492
2018-04-12T15:47:32.639Z,3640
2018-04-12T15:48:42.749Z,3540
2018-04-12T15:49:52.875Z,3692
2018-04-12T15:51:03.035Z,3340
2018-04-12T15:52:13.135Z,3708
2018-04-12T15:53:23.244Z,3660
2018-04-12T15:54:33.061Z,3368
2018-04-12T15:55:43.170Z,3316
2018-04-12T15:56:53.314Z,3540
2018-04-12T15:58:03.405Z,3492
2018-04-12T15:59:13.515Z,3424
2018-04-12T16:00:23.665Z,3356
2018-04-12T16:01:33.597Z,2908
2018-04-12T16:02:43.729Z,2936
2018-04-12T16:03:53.839Z,2772
2018-04-12T16:05:03.955Z,2452
2018-04-12T16:06:14.097Z,2112
2018-04-12T16:07:24.441Z,2052
2018-04-12T16:08:34.357Z,2064
2018-04-12T16:09:44.487Z,2132
2018-04-12T16:10:54.658Z,2272
2018-04-12T16:12:04.757Z,2300
2018-04-12T16:13:15.300Z,2312
2018-04-12T16:14:25.463Z,2388
2018-04-12T16:15:35.582Z,2416
2018-04-12T16:16:45.735Z,2484
2018-04-12T16:17:55.893Z,2248
2018-04-12T16:19:06.036Z,2096
2018-04-12T16:20:16.138Z,2076
2018-04-12T16:21:26.009Z,2044
2018-04-12T16:22:36.111Z,1820
2018-04-12T16:23:46.227Z,1880
2018-04-12T16:24:56.367Z,1604